createdAt,value
2023-01-19T00:01:08.580Z,8.27
2023-01-19T00:03:36.949Z,7.90
2023-01-19T00:06:07.031Z,7.80
2023-01-19T00:08:35.560Z,8.70
2023-01-19T00:11:04.100Z,8.33
2023-01-19T00:13:34.108Z,8.10
2023-01-19T00:16:02.155Z,9.10
2023-01-19T00:18:30.275Z,7.40
2023-01-19T00:20:58.796Z,7.87
2023-01-19T00:23:27.011Z,8.27
2023-01-19T00:25:55.054Z,8.27
2023-01-19T00:28:23.113Z,7.70
2023-01-19T00:30:52.920Z,8.10
2023-01-19T00:33:21.020Z,8.50
2023-01-19T00:35:53.361Z,9.03
2023-01-19T00:38:22.332Z,8.13
2023-01-19T00:40:50.522Z,7.90
2023-01-19T00:43:17.616Z,7.80
2023-01-19T00:45:46.793Z,8.30
2023-01-19T00:48:16.173Z,8.23
2023-01-19T00:50:44.204Z,8.37
2023-01-19T00:53:12.331Z,7.87
2023-01-19T00:55:40.416Z,8.10
2023-01-19T00:58:08.451Z,8.13
2023-01-19T01:00:36.700Z,8.70
2023-01-19T01:03:05.259Z,7.70
2023-01-19T01:05:34.837Z,8.70
2023-01-19T01:08:02.876Z,8.70
2023-01-19T01:10:31.129Z,7.83
2023-01-19T01:12:59.291Z,7.20
2023-01-19T01:15:29.847Z,8.17
2023-01-19T01:17:57.994Z,8.37
2023-01-19T01:20:30.199Z,8.33
2023-01-19T01:22:59.863Z,8.03
2023-01-19T01:25:30.961Z,7.73
2023-01-19T01:27:59.225Z,7.80
2023-01-19T01:30:27.301Z,8.40
2023-01-19T01:32:55.892Z,7.30
2023-01-19T01:35:24.350Z,8.10
2023-01-19T01:37:52.416Z,8.07
2023-01-19T01:40:22.079Z,7.53
2023-01-19T01:42:50.157Z,7.73
2023-01-19T01:45:33.192Z,7.90
2023-01-19T01:48:09.727Z,8.37
2023-01-19T01:51:04.186Z,8.00
2023-01-19T01:53:35.505Z,7.30
2023-01-19T01:56:12.775Z,8.20
2023-01-19T01:58:42.391Z,8.83
2023-01-19T02:01:29.313Z,7.43
2023-01-19T02:04:02.240Z,7.67
2023-01-19T02:06:30.593Z,7.57
2023-01-19T02:09:23.184Z,6.83
2023-01-19T02:12:09.965Z,7.63
2023-01-19T02:14:38.315Z,7.00
2023-01-19T02:17:07.727Z,6.83
2023-01-19T02:19:42.908Z,6.40
2023-01-19T02:22:18.898Z,7.10
2023-01-19T02:24:49.782Z,6.53
2023-01-19T02:27:18.661Z,7.20
2023-01-19T02:29:46.834Z,7.23
2023-01-19T02:32:14.999Z,7.07
2023-01-19T02:34:43.135Z,6.70
2023-01-19T02:37:15.778Z,7.33
2023-01-19T02:39:50.682Z,7.10
2023-01-19T02:42:25.182Z,6.80
2023-01-19T02:44:57.236Z,6.80
2023-01-19T02:47:25.894Z,7.40
2023-01-19T02:49:58.179Z,7.30
2023-01-19T02:52:28.147Z,7.27
2023-01-19T02:55:11.182Z,7.43
2023-01-19T02:58:02.206Z,7.57
2023-01-19T03:00:41.492Z,7.37
2023-01-19T03:03:30.575Z,7.10
2023-01-19T03:06:09.707Z,7.63
2023-01-19T03:08:51.382Z,7.50
2023-01-19T03:11:21.513Z,7.07
2023-01-19T03:13:54.525Z,7.80
2023-01-19T03:16:28.959Z,7.33
2023-01-19T03:19:05.430Z,7.60
2023-01-19T03:21:37.831Z,8.03
2023-01-19T03:24:11.922Z,7.23
2023-01-19T03:26:48.064Z,7.50
2023-01-19T03:29:19.348Z,7.97
2023-01-19T03:31:51.416Z,8.27
2023-01-19T03:34:23.925Z,7.87
2023-01-19T03:36:58.779Z,7.67
2023-01-19T03:39:29.862Z,8.20
2023-01-19T03:42:05.950Z,7.40
2023-01-19T03:44:40.263Z,8.00
2023-01-19T03:47:12.641Z,7.57
2023-01-19T03:49:44.146Z,7.93
2023-01-19T03:52:13.407Z,8.10
2023-01-19T03:54:42.126Z,7.60
2023-01-19T03:57:11.563Z,7.50
2023-01-19T03:59:39.648Z,7.40
2023-01-19T04:02:07.869Z,7.43
2023-01-19T04:04:35.923Z,7.70
2023-01-19T04:07:03.952Z,8.10
2023-01-19T04:09:31.979Z,8.67
2023-01-19T04:12:01.487Z,8.37
2023-01-19T04:14:30.955Z,7.73
2023-01-19T04:16:59.000Z,8.00
2023-01-19T04:19:27.091Z,8.57
2023-01-19T04:21:55.649Z,8.30
2023-01-19T04:24:23.732Z,8.67
2023-01-19T04:26:53.798Z,12.63
2023-01-19T04:29:21.886Z,13.27
2023-01-19T04:31:51.229Z,11.00
2023-01-19T04:34:19.271Z,10.20
2023-01-19T04:36:50.914Z,9.10
2023-01-19T04:39:18.971Z,8.07
2023-01-19T04:41:46.988Z,7.77
2023-01-19T04:44:15.430Z,8.83
2023-01-19T04:46:43.524Z,8.27
2023-01-19T04:49:13.156Z,7.57
2023-01-19T04:51:41.188Z,7.80
2023-01-19T04:54:09.855Z,7.73
2023-01-19T04:56:38.400Z,7.57
2023-01-19T04:59:06.429Z,8.43
2023-01-19T05:01:34.647Z,7.83
2023-01-19T05:04:05.091Z,8.20
2023-01-19T05:06:35.229Z,8.07
2023-01-19T05:09:03.352Z,8.03
2023-01-19T05:11:31.400Z,7.93
2023-01-19T05:13:59.403Z,8.13
2023-01-19T05:16:27.491Z,8.60
2023-01-19T05:18:55.565Z,8.37
2023-01-19T05:21:23.617Z,7.33
2023-01-19T05:23:53.081Z,7.60
2023-01-19T05:26:21.133Z,7.10
2023-01-19T05:28:50.262Z,7.70
2023-01-19T05:31:19.608Z,8.30
2023-01-19T05:33:48.255Z,7.60
2023-01-19T05:36:16.331Z,7.63
2023-01-19T05:38:44.384Z,7.43
2023-01-19T05:41:14.178Z,7.03
2023-01-19T05:43:42.242Z,7.40
2023-01-19T05:46:10.396Z,7.40
2023-01-19T05:48:39.107Z,7.57
2023-01-19T05:51:07.686Z,7.43
2023-01-19T05:53:35.736Z,7.60
2023-01-19T05:56:06.085Z,8.30
2023-01-19T05:58:36.171Z,6.80
2023-01-19T06:01:05.887Z,7.90
2023-01-19T06:03:35.475Z,7.73
2023-01-19T06:06:04.954Z,7.27
2023-01-19T06:08:32.976Z,6.53
2023-01-19T06:11:01.084Z,6.90
2023-01-19T06:13:29.098Z,7.17
2023-01-19T06:16:03.386Z,6.67
2023-01-19T06:18:31.565Z,6.90
2023-01-19T06:20:59.620Z,6.50
2023-01-19T06:23:30.201Z,7.30
2023-01-19T06:25:58.667Z,7.67
2023-01-19T06:28:26.883Z,6.30
2023-01-19T06:30:56.725Z,7.00
2023-01-19T06:33:27.822Z,6.10
2023-01-19T06:35:56.567Z,7.20
2023-01-19T06:38:24.758Z,7.13
2023-01-19T06:40:58.663Z,7.60
2023-01-19T06:43:27.897Z,6.53
2023-01-19T06:45:56.913Z,7.20
2023-01-19T06:48:26.298Z,7.37
2023-01-19T06:50:54.294Z,7.57
2023-01-19T06:53:22.447Z,7.13
2023-01-19T06:55:50.548Z,7.10
2023-01-19T06:58:18.802Z,6.50
2023-01-19T07:00:46.904Z,7.73
2023-01-19T07:03:21.347Z,6.83
2023-01-19T07:05:53.270Z,7.47
2023-01-19T07:08:21.769Z,6.80
2023-01-19T07:11:26.742Z,7.03
2023-01-19T07:13:41.066Z,7.20
2023-01-19T07:16:12.571Z,6.93
2023-01-19T07:18:41.868Z,6.87
2023-01-19T07:21:11.726Z,7.20
2023-01-19T07:23:39.740Z,7.17
2023-01-19T07:26:11.715Z,7.10
2023-01-19T07:28:39.768Z,6.80
2023-01-19T07:31:08.867Z,6.50
2023-01-19T07:33:37.069Z,6.73
2023-01-19T07:36:05.654Z,6.70
2023-01-19T07:38:35.095Z,6.80
2023-01-19T07:41:03.817Z,6.53
2023-01-19T07:43:32.398Z,7.00
2023-01-19T07:46:03.317Z,7.67
2023-01-19T07:48:31.582Z,7.17
2023-01-19T07:51:01.963Z,6.80
2023-01-19T07:53:31.257Z,7.13
2023-01-19T07:56:00.929Z,6.87
2023-01-19T07:58:30.512Z,7.57
2023-01-19T08:00:58.638Z,7.07
2023-01-19T08:03:26.826Z,7.13
2023-01-19T08:05:56.945Z,7.07
2023-01-19T08:08:25.352Z,6.90
2023-01-19T08:10:54.154Z,8.00
2023-01-19T08:13:23.615Z,7.00
2023-01-19T08:15:52.943Z,7.80
2023-01-19T08:18:21.899Z,7.33
2023-01-19T08:20:50.097Z,7.83
2023-01-19T08:23:19.608Z,8.23
2023-01-19T08:25:47.862Z,8.63
2023-01-19T08:28:18.011Z,9.10
2023-01-19T08:30:53.990Z,7.53
2023-01-19T08:33:23.652Z,8.53
2023-01-19T08:35:54.319Z,8.63
2023-01-19T08:38:22.750Z,7.93
2023-01-19T08:40:50.883Z,7.33
2023-01-19T08:43:19.160Z,8.27
2023-01-19T08:45:53.748Z,8.17
2023-01-19T08:48:23.548Z,7.63
2023-01-19T08:50:53.375Z,8.00
2023-01-19T08:53:24.089Z,7.90
2023-01-19T08:55:57.296Z,7.50
2023-01-19T08:58:25.346Z,8.20
2023-01-19T09:00:55.048Z,7.87
2023-01-19T09:03:23.587Z,7.57
2023-01-19T09:05:52.260Z,7.80
2023-01-19T09:08:20.678Z,7.00
2023-01-19T09:10:51.359Z,7.13
2023-01-19T09:13:22.143Z,7.43
2023-01-19T09:15:50.464Z,7.07
2023-01-19T09:18:22.988Z,6.73
2023-01-19T09:20:52.045Z,6.67
2023-01-19T09:23:22.576Z,6.70
2023-01-19T09:25:57.674Z,7.10
2023-01-19T09:28:25.747Z,6.77
2023-01-19T09:30:54.386Z,7.50
2023-01-19T09:33:25.549Z,6.77
2023-01-19T09:35:53.884Z,7.13
2023-01-19T09:38:22.385Z,8.23
2023-01-19T09:40:54.312Z,7.30
2023-01-19T09:43:40.742Z,7.40
2023-01-19T09:46:16.827Z,7.40
2023-01-19T09:48:50.904Z,6.27
2023-01-19T09:51:23.210Z,6.93
2023-01-19T09:54:09.076Z,6.60
2023-01-19T09:56:37.747Z,6.47
2023-01-19T09:59:22.246Z,7.23
2023-01-19T10:02:19.240Z,6.07
2023-01-19T10:05:00.848Z,7.20
2023-01-19T10:07:58.299Z,6.40
2023-01-19T10:10:29.078Z,6.60
2023-01-19T10:13:12.530Z,6.53
2023-01-19T10:15:56.773Z,6.23
2023-01-19T10:18:33.062Z,6.20
2023-01-19T10:21:11.472Z,6.87
2023-01-19T10:23:47.175Z,5.90
2023-01-19T10:26:19.182Z,6.70
2023-01-19T10:28:52.229Z,7.00
2023-01-19T10:31:24.881Z,7.30
2023-01-19T10:33:54.809Z,7.33
2023-01-19T10:36:34.811Z,7.87
2023-01-19T10:39:08.892Z,8.00
2023-01-19T10:41:44.284Z,8.13
2023-01-19T10:44:12.608Z,8.13
2023-01-19T10:46:47.153Z,8.87
2023-01-19T10:49:28.298Z,8.57
2023-01-19T10:52:00.151Z,9.17
2023-01-19T10:54:31.127Z,8.80
2023-01-19T10:57:03.279Z,8.70
2023-01-19T10:59:38.669Z,8.77
2023-01-19T11:02:20.580Z,8.23
2023-01-19T11:04:51.359Z,8.57
2023-01-19T11:07:24.624Z,8.07
2023-01-19T11:10:21.942Z,8.00
2023-01-19T11:13:02.166Z,8.03
2023-01-19T11:15:41.818Z,8.17
2023-01-19T11:18:23.244Z,7.20
2023-01-19T11:20:55.419Z,7.27
2023-01-19T11:23:29.284Z,7.43
2023-01-19T11:26:02.689Z,7.13
2023-01-19T11:28:36.390Z,7.37
2023-01-19T11:31:18.780Z,7.13
2023-01-19T11:33:53.069Z,7.53
2023-01-19T11:36:24.186Z,7.10
2023-01-19T11:38:54.379Z,8.10
2023-01-19T11:41:29.467Z,7.90
2023-01-19T11:44:03.718Z,7.30
2023-01-19T11:46:37.532Z,7.60
2023-01-19T11:49:14.765Z,7.43
2023-01-19T11:51:53.127Z,6.83
2023-01-19T11:54:27.931Z,6.93
2023-01-19T11:57:00.972Z,6.97
2023-01-19T11:59:29.816Z,6.60
2023-01-19T12:02:06.020Z,7.17
2023-01-19T12:04:40.130Z,6.53
2023-01-19T12:07:12.141Z,6.57
2023-01-19T12:09:45.275Z,5.90
2023-01-19T12:12:32.115Z,7.00
2023-01-19T12:15:07.112Z,6.60
2023-01-19T12:17:41.566Z,6.27
2023-01-19T12:20:27.305Z,6.60
2023-01-19T12:23:15.368Z,6.50
2023-01-19T12:26:04.819Z,6.73
2023-01-19T12:28:41.870Z,7.40
2023-01-19T12:31:10.820Z,7.70
2023-01-19T12:33:41.342Z,8.60
2023-01-19T12:36:36.605Z,8.60
2023-01-19T12:39:13.755Z,7.50
2023-01-19T12:41:43.015Z,8.13
2023-01-19T12:44:33.950Z,8.73
2023-01-19T12:47:20.153Z,8.20
2023-01-19T12:49:52.915Z,8.00
2023-01-19T12:52:29.015Z,8.67
2023-01-19T12:55:07.567Z,8.33
2023-01-19T12:57:43.087Z,8.60
2023-01-19T13:00:33.565Z,8.37
2023-01-19T13:03:04.364Z,7.57
2023-01-19T13:05:59.739Z,8.37
2023-01-19T13:08:59.163Z,9.30
2023-01-19T13:11:31.367Z,9.17
2023-01-19T13:14:36.529Z,7.80
2023-01-19T13:17:34.082Z,8.50
2023-01-19T13:20:29.448Z,8.97
2023-01-19T13:23:26.711Z,10.07
2023-01-19T13:26:07.437Z,8.67
2023-01-19T13:28:43.369Z,9.50
2023-01-19T13:31:13.647Z,9.27
2023-01-19T13:33:51.186Z,8.77
2023-01-19T13:36:27.187Z,8.60
2023-01-19T13:38:57.658Z,8.10
2023-01-19T13:41:30.453Z,9.27
2023-01-19T13:44:04.168Z,8.43
2023-01-19T13:46:34.232Z,10.07
2023-01-19T13:49:16.447Z,8.80
2023-01-19T13:51:44.553Z,8.73
2023-01-19T13:54:17.911Z,9.30
2023-01-19T13:56:50.073Z,8.23
2023-01-19T13:59:18.253Z,8.17
2023-01-19T14:01:48.275Z,8.33
2023-01-19T14:04:30.281Z,7.93
2023-01-19T14:07:03.487Z,7.93
2023-01-19T14:09:31.994Z,19.27
2023-01-19T14:12:12.998Z,19.83
2023-01-19T14:14:41.593Z,12.77
2023-01-19T14:17:26.278Z,8.97
2023-01-19T14:19:57.938Z,8.07
2023-01-19T14:22:43.300Z,7.67
2023-01-19T14:25:29.655Z,9.13
2023-01-19T14:28:39.179Z,8.43
2023-01-19T14:31:22.430Z,8.10
2023-01-19T14:33:53.820Z,9.23
2023-01-19T14:36:39.111Z,8.50
2023-01-19T14:39:24.111Z,7.57
2023-01-19T14:41:54.150Z,7.70
2023-01-19T14:44:30.549Z,9.10
2023-01-19T14:47:00.119Z,8.13
2023-01-19T14:49:35.127Z,8.30
2023-01-19T14:52:17.145Z,7.70
2023-01-19T14:54:47.999Z,8.30
2023-01-19T14:57:16.478Z,8.10
2023-01-19T14:59:49.457Z,8.10
2023-01-19T15:02:19.417Z,8.17
2023-01-19T15:04:48.912Z,8.63
2023-01-19T15:07:20.665Z,11.10
2023-01-19T15:09:49.225Z,13.23
2023-01-19T15:12:20.686Z,12.33
2023-01-19T15:14:48.832Z,10.10
2023-01-19T15:17:25.337Z,10.13
2023-01-19T15:19:54.992Z,13.13
2023-01-19T15:22:29.247Z,12.23
2023-01-19T15:24:59.925Z,13.10
2023-01-19T15:27:28.400Z,13.87
2023-01-19T15:29:56.559Z,11.83
2023-01-19T15:32:24.671Z,11.87
2023-01-19T15:34:52.734Z,11.70
2023-01-19T15:37:20.750Z,12.00
2023-01-19T15:39:50.275Z,11.73
2023-01-19T15:42:18.284Z,12.90
2023-01-19T15:44:46.799Z,12.87
2023-01-19T15:47:14.844Z,13.57
2023-01-19T15:49:42.876Z,12.00
2023-01-19T15:52:10.923Z,11.43
2023-01-19T15:54:39.002Z,37.43
2023-01-19T15:57:09.314Z,13.47
2023-01-19T15:59:37.360Z,13.63
2023-01-19T16:02:05.829Z,13.27
2023-01-19T16:04:34.050Z,27.23
2023-01-19T16:07:02.076Z,11.20
2023-01-19T16:09:30.079Z,13.57
2023-01-19T16:11:58.129Z,11.60
2023-01-19T16:14:27.894Z,11.10
2023-01-19T16:16:59.200Z,10.40
2023-01-19T16:19:27.420Z,10.00
2023-01-19T16:21:55.442Z,21.97
2023-01-19T16:24:23.490Z,12.97
2023-01-19T16:26:51.695Z,25.97
2023-01-19T16:29:19.744Z,17.53
2023-01-19T16:31:49.262Z,20.57
2023-01-19T16:34:18.051Z,20.27
2023-01-19T16:36:46.114Z,13.67
2023-01-19T16:39:16.112Z,15.63
2023-01-19T16:41:45.845Z,40.73
2023-01-19T16:44:16.240Z,25.30
2023-01-19T16:46:49.646Z,29.67
2023-01-19T16:49:21.055Z,45.60
2023-01-19T16:51:50.488Z,32.20
2023-01-19T16:54:21.934Z,25.33
2023-01-19T16:56:50.639Z,41.13
2023-01-19T16:59:20.930Z,17.13
2023-01-19T17:01:52.489Z,17.77
2023-01-19T17:04:23.104Z,16.13
2023-01-19T17:06:51.256Z,15.13
2023-01-19T17:09:19.429Z,14.77
2023-01-19T17:11:47.858Z,17.10
2023-01-19T17:14:20.261Z,15.27
2023-01-19T17:16:50.485Z,16.07
2023-01-19T17:19:22.099Z,19.30
2023-01-19T17:21:51.253Z,17.63
2023-01-19T17:24:19.995Z,14.90
2023-01-19T17:26:48.657Z,17.40
2023-01-19T17:29:18.231Z,19.30
2023-01-19T17:31:46.903Z,15.07
2023-01-19T17:34:16.443Z,13.83
2023-01-19T17:36:45.094Z,15.13
2023-01-19T17:39:16.778Z,13.03
2023-01-19T17:41:45.151Z,13.63
2023-01-19T17:44:13.324Z,13.93
2023-01-19T17:46:41.743Z,13.13
2023-01-19T17:49:09.929Z,14.97
2023-01-19T17:51:39.648Z,15.40
2023-01-19T17:54:08.007Z,14.67
2023-01-19T17:56:38.607Z,14.43
2023-01-19T17:59:08.092Z,14.57
2023-01-19T18:01:40.329Z,14.03
2023-01-19T18:04:10.020Z,24.37
2023-01-19T18:06:40.173Z,21.50
2023-01-19T18:09:08.496Z,16.20
2023-01-19T18:11:37.224Z,18.40
2023-01-19T18:14:06.587Z,19.70
2023-01-19T18:16:35.052Z,23.37
2023-01-19T18:19:03.237Z,26.83
2023-01-19T18:21:31.322Z,22.80
2023-01-19T18:24:03.860Z,20.17
2023-01-19T18:26:33.986Z,19.10
2023-01-19T18:29:02.543Z,17.83
2023-01-19T18:31:31.038Z,17.00
2023-01-19T18:33:59.396Z,16.47
2023-01-19T18:36:28.077Z,17.13
2023-01-19T18:38:56.397Z,21.50
2023-01-19T18:41:25.939Z,18.63
2023-01-19T18:43:59.576Z,17.50
2023-01-19T18:46:28.282Z,18.20
2023-01-19T18:48:56.447Z,18.77
2023-01-19T18:51:24.661Z,23.53
2023-01-19T18:53:52.857Z,19.17
2023-01-19T18:56:21.044Z,20.03
2023-01-19T18:58:52.226Z,19.70
2023-01-19T19:01:25.634Z,18.83
2023-01-19T19:03:55.674Z,18.37
2023-01-19T19:06:27.024Z,16.97
2023-01-19T19:08:57.587Z,18.47
2023-01-19T19:11:26.414Z,18.07
2023-01-19T19:13:58.408Z,20.27
2023-01-19T19:16:27.115Z,19.83
2023-01-19T19:18:55.482Z,17.00
2023-01-19T19:21:25.664Z,21.63
2023-01-19T19:23:55.333Z,22.00
2023-01-19T19:26:25.602Z,24.53
2023-01-19T19:28:55.100Z,23.17
2023-01-19T19:31:26.148Z,20.47
2023-01-19T19:33:56.199Z,20.73
2023-01-19T19:36:27.432Z,25.53
2023-01-19T19:38:55.906Z,24.03
2023-01-19T19:41:27.503Z,24.67
2023-01-19T19:43:57.396Z,25.67
2023-01-19T19:46:27.117Z,23.67
2023-01-19T19:48:55.848Z,25.67
2023-01-19T19:51:27.077Z,25.10
2023-01-19T19:53:56.800Z,25.30
2023-01-19T19:56:27.990Z,26.37
2023-01-19T19:59:00.006Z,24.87
2023-01-19T20:01:33.463Z,23.80
2023-01-19T20:04:08.548Z,30.23
2023-01-19T20:06:39.881Z,23.97
2023-01-19T20:09:12.577Z,39.90
2023-01-19T20:11:42.183Z,62.00
2023-01-19T20:14:16.024Z,45.80
2023-01-19T20:16:44.557Z,34.50
2023-01-19T20:19:12.820Z,42.13
2023-01-19T20:21:42.968Z,39.67
2023-01-19T20:24:15.591Z,37.87
2023-01-19T20:26:47.567Z,32.93
2023-01-19T20:29:17.433Z,27.63
2023-01-19T20:31:50.273Z,29.47
2023-01-19T20:34:23.334Z,27.63
2023-01-19T20:36:53.706Z,27.57
2023-01-19T20:39:23.773Z,26.93
2023-01-19T20:41:52.542Z,29.87
2023-01-19T20:44:25.806Z,29.33
2023-01-19T20:46:55.398Z,31.03
2023-01-19T20:49:24.156Z,28.37
2023-01-19T20:51:53.391Z,30.90
2023-01-19T20:54:26.202Z,28.00
2023-01-19T20:56:55.340Z,28.67
2023-01-19T20:59:25.098Z,28.43
2023-01-19T21:01:53.369Z,29.00
2023-01-19T21:04:22.322Z,30.47
2023-01-19T21:06:50.542Z,30.33
2023-01-19T21:09:18.964Z,31.17
2023-01-19T21:11:47.094Z,31.17
2023-01-19T21:14:15.211Z,32.23
2023-01-19T21:16:44.744Z,32.00
2023-01-19T21:19:13.198Z,32.53
2023-01-19T21:21:41.448Z,32.03
2023-01-19T21:24:11.790Z,31.57
2023-01-19T21:26:41.629Z,33.63
2023-01-19T21:29:14.001Z,30.60
2023-01-19T21:31:42.674Z,32.23
2023-01-19T21:34:12.307Z,33.27
2023-01-19T21:36:40.439Z,33.10
2023-01-19T21:39:09.085Z,33.77
2023-01-19T21:41:40.858Z,31.90
2023-01-19T21:44:09.006Z,32.97
2023-01-19T21:46:37.164Z,31.87
2023-01-19T21:49:07.266Z,31.93
2023-01-19T21:51:37.996Z,31.60
2023-01-19T21:54:07.784Z,33.30
2023-01-19T21:56:37.863Z,32.83
2023-01-19T21:59:07.434Z,31.40
2023-01-19T22:01:36.141Z,33.43
2023-01-19T22:04:04.442Z,33.57
2023-01-19T22:06:32.601Z,31.97
2023-01-19T22:09:02.015Z,31.90
2023-01-19T22:11:30.455Z,31.37
2023-01-19T22:13:59.580Z,33.23
2023-01-19T22:16:29.199Z,32.43
2023-01-19T22:19:01.006Z,30.70
2023-01-19T22:21:31.969Z,32.10
2023-01-19T22:24:03.370Z,31.10
2023-01-19T22:26:34.000Z,32.57
2023-01-19T22:29:04.171Z,33.53
2023-01-19T22:31:33.069Z,32.00
2023-01-19T22:34:01.228Z,35.50
2023-01-19T22:36:33.759Z,32.37
2023-01-19T22:39:06.698Z,32.40
2023-01-19T22:41:37.833Z,33.40
2023-01-19T22:44:08.843Z,34.07
2023-01-19T22:46:38.582Z,31.67
2023-01-19T22:49:09.112Z,33.03
2023-01-19T22:51:38.080Z,35.90
2023-01-19T22:54:07.910Z,32.67
2023-01-19T22:56:38.269Z,32.97
2023-01-19T22:59:07.966Z,33.87
2023-01-19T23:01:38.645Z,34.23
2023-01-19T23:04:08.536Z,35.03
2023-01-19T23:06:38.135Z,30.30
2023-01-19T23:09:13.519Z,31.47
2023-01-19T23:11:44.686Z,31.93
2023-01-19T23:14:18.002Z,34.77
2023-01-19T23:16:47.054Z,32.90
2023-01-19T23:19:17.291Z,32.53
2023-01-19T23:21:46.555Z,36.93
2023-01-19T23:24:15.938Z,33.67
2023-01-19T23:26:44.004Z,33.27
2023-01-19T23:29:14.878Z,31.33
2023-01-19T23:31:46.325Z,32.30
2023-01-19T23:34:17.312Z,31.07
2023-01-19T23:36:46.401Z,31.53
2023-01-19T23:39:18.677Z,32.00
2023-01-19T23:41:47.544Z,31.13
2023-01-19T23:44:18.007Z,30.70
2023-01-19T23:46:47.061Z,30.73
2023-01-19T23:49:15.426Z,32.10
2023-01-19T23:51:43.739Z,31.90
2023-01-19T23:54:12.802Z,31.63
2023-01-19T23:56:43.081Z,31.60
2023-01-19T23:59:14.227Z,31.80
